createdAt,value
2019-05-20T00:03:02.531Z,2.31
2019-05-20T00:08:11.688Z,2.29
2019-05-20T00:13:20.761Z,2.62
2019-05-20T00:18:29.945Z,2.43
2019-05-20T00:23:39.003Z,1.99
2019-05-20T00:28:48.125Z,2.53
2019-05-20T00:33:57.184Z,2.56
2019-05-20T00:39:06.391Z,2.48
2019-05-20T00:44:15.464Z,2.62
2019-05-20T00:49:24.696Z,2.62
2019-05-20T00:54:33.733Z,2.16
2019-05-20T00:59:42.943Z,2.58
2019-05-20T01:04:51.986Z,2.51
2019-05-20T01:10:01.147Z,2.60
2019-05-20T01:15:10.195Z,2.56
2019-05-20T01:20:19.363Z,2.46
2019-05-20T01:25:28.427Z,2.03
2019-05-20T01:30:37.602Z,2.31
2019-05-20T01:35:46.642Z,2.97
2019-05-20T01:40:55.750Z,2.16
2019-05-20T01:46:07.814Z,2.24
2019-05-20T01:51:06.914Z,2.61
2019-05-20T01:56:15.976Z,2.43
2019-05-20T02:01:25.305Z,2.36
2019-05-20T02:06:34.369Z,2.96
2019-05-20T02:11:43.486Z,2.28
2019-05-20T02:16:52.564Z,2.44
2019-05-20T02:22:01.736Z,2.95
2019-05-20T02:27:10.787Z,3.09
2019-05-20T02:32:18.509Z,3.26
2019-05-20T02:37:27.567Z,3.64
2019-05-20T02:42:36.729Z,3.64
2019-05-20T02:47:45.742Z,3.89
2019-05-20T02:52:57.928Z,3.78
2019-05-20T02:57:57.094Z,4.82
2019-05-20T03:03:06.241Z,4.90
2019-05-20T03:08:13.845Z,4.76
2019-05-20T03:13:23.060Z,4.68
2019-05-20T03:18:32.111Z,5.10
2019-05-20T03:23:41.262Z,4.61
2019-05-20T03:28:50.342Z,4.29
2019-05-20T03:33:59.488Z,5.26
2019-05-20T03:39:08.514Z,4.70
2019-05-20T03:44:17.634Z,4.57
2019-05-20T03:49:26.701Z,5.15
2019-05-20T03:54:35.869Z,5.22
2019-05-20T03:59:44.891Z,5.13
2019-05-20T04:05:02.028Z,4.24
2019-05-20T04:10:02.643Z,4.15
2019-05-20T04:15:11.773Z,5.45
2019-05-20T04:20:20.941Z,4.63
2019-05-20T04:25:30.091Z,5.51
2019-05-20T04:30:39.165Z,5.59
2019-05-20T04:35:49.808Z,5.08
2019-05-20T04:40:56.862Z,4.02
2019-05-20T04:46:05.987Z,5.45
2019-05-20T04:51:15.049Z,5.16
2019-05-20T04:56:24.207Z,4.95
2019-05-20T05:01:33.319Z,5.28
2019-05-20T05:06:42.435Z,5.18
2019-05-20T05:11:51.527Z,4.99
2019-05-20T05:17:00.630Z,5.34
2019-05-20T05:22:09.675Z,5.45
2019-05-20T05:27:18.780Z,5.80
2019-05-20T05:32:27.818Z,5.98
2019-05-20T05:37:37.067Z,6.22
2019-05-20T05:42:46.117Z,4.88
2019-05-20T05:47:55.252Z,6.71
2019-05-20T05:53:04.365Z,6.70
2019-05-20T05:58:13.485Z,7.26
2019-05-20T06:03:22.518Z,7.50
2019-05-20T06:08:31.616Z,7.64
2019-05-20T06:13:40.701Z,5.89
2019-05-20T06:18:49.935Z,4.86
2019-05-20T06:24:11.075Z,2.45
2019-05-20T06:29:02.822Z,1.71
2019-05-20T06:34:09.438Z,2.04
2019-05-20T06:39:18.557Z,1.68
2019-05-20T06:44:27.603Z,1.03
2019-05-20T06:49:36.711Z,1.12
2019-05-20T06:54:45.765Z,1.04
2019-05-20T06:59:54.915Z,0.74
2019-05-20T07:05:04.190Z,0.91
2019-05-20T07:10:13.439Z,0.85
2019-05-20T07:15:22.484Z,0.54
2019-05-20T07:20:31.677Z,0.61
2019-05-20T07:25:40.700Z,0.67
2019-05-20T07:30:49.802Z,0.66
2019-05-20T07:35:58.854Z,0.77
2019-05-20T07:41:07.957Z,0.71
2019-05-20T07:46:17.000Z,0.77
2019-05-20T07:51:28.310Z,0.86
2019-05-20T07:56:27.312Z,0.83
2019-05-20T08:01:36.478Z,0.92
2019-05-20T08:06:45.519Z,0.79
2019-05-20T08:11:54.622Z,0.80
2019-05-20T08:17:03.689Z,1.10
2019-05-20T08:22:12.784Z,1.48
2019-05-20T08:27:21.812Z,1.37
2019-05-20T08:32:31.074Z,1.46
2019-05-20T08:37:45.547Z,1.48
2019-05-20T08:42:48.920Z,1.45
2019-05-20T08:47:57.949Z,1.33
2019-05-20T08:53:07.170Z,1.15
2019-05-20T08:58:16.216Z,1.03
2019-05-20T09:03:25.339Z,0.99
2019-05-20T09:08:34.398Z,1.52
2019-05-20T09:13:43.723Z,1.16
2019-05-20T09:18:52.723Z,1.32
2019-05-20T09:24:01.875Z,1.02
2019-05-20T09:29:11.464Z,1.17
2019-05-20T09:34:19.581Z,1.28
2019-05-20T09:39:28.623Z,0.99
2019-05-20T09:44:37.723Z,1.02
2019-05-20T09:49:46.800Z,1.02
2019-05-20T09:54:56.005Z,0.91
2019-05-20T10:00:05.053Z,1.17
2019-05-20T10:05:14.158Z,1.20
2019-05-20T10:10:23.211Z,1.13
2019-05-20T10:15:32.334Z,1.04
2019-05-20T10:20:41.390Z,1.12
2019-05-20T10:25:50.612Z,1.24
2019-05-20T10:30:59.682Z,0.86
2019-05-20T10:36:08.889Z,1.12
2019-05-20T10:41:17.968Z,0.83
2019-05-20T10:46:27.184Z,1.42
2019-05-20T10:51:36.270Z,1.17
2019-05-20T10:56:45.392Z,0.92
2019-05-20T11:01:54.616Z,0.95
2019-05-20T11:07:03.792Z,1.02
2019-05-20T11:12:12.973Z,0.93
2019-05-20T11:17:22.253Z,1.30
2019-05-20T11:22:31.327Z,1.09
2019-05-20T11:27:40.650Z,1.15
2019-05-20T11:32:49.691Z,1.05
2019-05-20T11:37:58.876Z,0.97
2019-05-20T11:43:07.936Z,1.01
2019-05-20T11:48:19.072Z,1.09
2019-05-20T11:53:18.071Z,1.02
2019-05-20T11:58:27.174Z,0.87
2019-05-20T12:03:36.226Z,0.93
2019-05-20T12:08:45.379Z,0.89
2019-05-20T12:13:54.426Z,0.85
2019-05-20T12:19:03.604Z,0.75
2019-05-20T12:24:12.664Z,0.93
2019-05-20T12:29:21.869Z,0.95
2019-05-20T12:34:30.938Z,1.08
2019-05-20T12:39:40.064Z,0.77
2019-05-20T12:44:49.118Z,0.99
2019-05-20T12:49:58.265Z,1.00
2019-05-20T12:55:09.116Z,1.09
2019-05-20T13:00:16.160Z,0.95
2019-05-20T13:05:25.340Z,1.14
2019-05-20T13:10:34.450Z,1.12
2019-05-20T13:15:43.504Z,1.12
2019-05-20T13:20:52.775Z,0.78
2019-05-20T13:26:01.807Z,1.18
2019-05-20T13:31:11.214Z,1.00
2019-05-20T13:36:20.248Z,1.04
2019-05-20T13:41:29.353Z,1.21
2019-05-20T13:46:38.408Z,1.03
2019-05-20T13:51:47.588Z,0.95
2019-05-20T13:56:56.610Z,1.08
2019-05-20T14:02:05.915Z,1.12
2019-05-20T14:07:14.953Z,1.04
2019-05-20T14:12:24.071Z,0.94
2019-05-20T14:17:33.156Z,1.16
2019-05-20T14:22:42.357Z,1.07
2019-05-20T14:27:51.441Z,1.02
2019-05-20T14:33:00.691Z,1.33
2019-05-20T14:38:09.969Z,1.06
2019-05-20T14:43:19.107Z,1.15
2019-05-20T14:48:28.175Z,0.99
2019-05-20T14:53:37.289Z,0.98
2019-05-20T14:58:46.351Z,0.87
2019-05-20T15:03:55.630Z,0.88
2019-05-20T15:09:04.713Z,0.86
2019-05-20T15:14:13.970Z,0.81
2019-05-20T15:19:23.239Z,0.87
2019-05-20T15:24:32.482Z,0.81
2019-05-20T15:29:41.570Z,0.78
2019-05-20T15:34:50.926Z,0.72
2019-05-20T15:39:59.915Z,0.77
2019-05-20T15:45:09.402Z,0.57
2019-05-20T15:50:18.460Z,0.58
2019-05-20T15:55:27.746Z,0.75
2019-05-20T16:00:36.807Z,0.72
2019-05-20T16:05:45.997Z,0.79
2019-05-20T16:10:55.137Z,0.65
2019-05-20T16:16:04.267Z,1.01
2019-05-20T16:21:13.351Z,0.76
2019-05-20T16:26:22.488Z,0.86
2019-05-20T16:31:31.540Z,0.90
2019-05-20T16:36:40.807Z,0.77
2019-05-20T16:41:49.943Z,0.84
2019-05-20T16:46:59.117Z,0.67
2019-05-20T16:52:08.164Z,0.82
2019-05-20T16:57:17.299Z,0.74
2019-05-20T17:02:26.365Z,0.95
2019-05-20T17:07:36.976Z,0.84
2019-05-20T17:12:35.961Z,0.90
2019-05-20T17:17:45.108Z,0.78
2019-05-20T17:22:54.174Z,0.86
2019-05-20T17:28:03.270Z,1.01
2019-05-20T17:33:12.305Z,2.81
2019-05-20T17:38:21.495Z,1.48
2019-05-20T17:43:30.582Z,1.31
2019-05-20T17:48:39.703Z,1.21
2019-05-20T17:53:48.813Z,1.07
2019-05-20T17:58:57.995Z,0.92
2019-05-20T18:04:07.234Z,1.01
2019-05-20T18:09:17.266Z,0.83
2019-05-20T18:14:16.246Z,0.76
2019-05-20T18:19:25.372Z,0.92
2019-05-20T18:24:34.453Z,0.81
2019-05-20T18:29:43.563Z,0.65
2019-05-20T18:34:52.601Z,0.77
2019-05-20T18:40:13.467Z,0.82
2019-05-20T18:45:10.353Z,0.83
2019-05-20T18:50:19.583Z,1.06
2019-05-20T18:55:28.640Z,1.11
2019-05-20T19:00:37.827Z,0.97
2019-05-20T19:05:46.866Z,1.14
2019-05-20T19:10:56.177Z,0.95
2019-05-20T19:16:05.242Z,0.99
2019-05-20T19:21:14.436Z,0.84
2019-05-20T19:26:25.289Z,0.86
2019-05-20T19:31:32.173Z,0.48
2019-05-20T19:36:41.333Z,0.66
2019-05-20T19:41:59.751Z,0.69
2019-05-20T19:46:58.811Z,0.57
2019-05-20T19:52:07.957Z,0.56
2019-05-20T19:57:17.011Z,0.78
2019-05-20T20:02:26.178Z,0.81
2019-05-20T20:07:35.207Z,1.01
2019-05-20T20:12:44.466Z,0.90
2019-05-20T20:17:53.516Z,0.75
2019-05-20T20:23:02.680Z,0.78
2019-05-20T20:28:11.730Z,0.70
2019-05-20T20:33:20.890Z,0.78
2019-05-20T20:38:29.946Z,0.57
2019-05-20T20:43:39.176Z,0.61
2019-05-20T20:48:48.234Z,0.77
2019-05-20T20:53:57.325Z,0.63
2019-05-20T20:59:06.509Z,0.82
2019-05-20T21:04:15.725Z,0.80
2019-05-20T21:09:24.883Z,0.58
2019-05-20T21:14:33.949Z,0.71
2019-05-20T21:19:43.011Z,0.55
2019-05-20T21:24:52.124Z,0.62
2019-05-20T21:30:01.166Z,0.71
2019-05-20T21:35:10.447Z,0.61
2019-05-20T21:40:19.476Z,0.51
2019-05-20T21:45:28.578Z,0.46
2019-05-20T21:50:37.622Z,0.51
2019-05-20T21:55:46.832Z,0.68
2019-05-20T22:00:55.888Z,0.67
2019-05-20T22:06:05.047Z,0.60
2019-05-20T22:11:14.186Z,0.50
2019-05-20T22:16:23.406Z,0.71
2019-05-20T22:21:32.469Z,0.62
2019-05-20T22:26:41.629Z,0.48
2019-05-20T22:31:52.701Z,0.81
2019-05-20T22:36:51.811Z,0.59
2019-05-20T22:42:00.850Z,0.76
2019-05-20T22:47:09.938Z,0.43
2019-05-20T22:52:18.983Z,0.61
2019-05-20T22:57:28.263Z,0.67
2019-05-20T23:02:37.327Z,0.49
2019-05-20T23:07:46.726Z,0.68
2019-05-20T23:12:55.773Z,0.83
2019-05-20T23:18:04.935Z,0.64
2019-05-20T23:23:13.974Z,0.61
2019-05-20T23:28:23.164Z,0.61
2019-05-20T23:33:32.185Z,0.50
2019-05-20T23:38:41.303Z,0.58
2019-05-20T23:43:50.618Z,0.63
2019-05-20T23:49:00.154Z,0.58
2019-05-20T23:54:09.185Z,0.65
2019-05-20T23:59:18.398Z,0.50
